createdAt,value
2018-07-04T00:00:40.195Z,14.94
2018-07-04T00:03:20.602Z,14.88
2018-07-04T00:06:01.012Z,14.83
2018-07-04T00:08:41.582Z,14.73
2018-07-04T00:11:22.441Z,14.71
2018-07-04T00:14:02.744Z,14.71
2018-07-04T00:16:43.004Z,14.67
2018-07-04T00:19:23.370Z,14.67
2018-07-04T00:22:03.620Z,14.66
2018-07-04T00:24:43.900Z,14.61
2018-07-04T00:27:24.100Z,14.55
2018-07-04T00:30:04.346Z,14.57
2018-07-04T00:32:44.701Z,14.60
2018-07-04T00:35:25.100Z,14.60
2018-07-04T00:38:05.606Z,14.60
2018-07-04T00:40:45.886Z,14.62
2018-07-04T00:43:26.197Z,14.62
2018-07-04T00:46:06.477Z,14.61
2018-07-04T00:48:46.711Z,14.58
2018-07-04T00:51:27.015Z,14.54
2018-07-04T00:54:07.199Z,14.48
2018-07-04T00:56:47.489Z,14.42
2018-07-04T00:59:27.957Z,14.39
2018-07-04T01:02:08.267Z,14.39
2018-07-04T01:04:48.518Z,14.35
2018-07-04T01:07:28.841Z,14.29
2018-07-04T01:10:09.141Z,14.30
2018-07-04T01:12:49.445Z,14.28
2018-07-04T01:15:29.801Z,14.26
2018-07-04T01:18:10.206Z,14.24
2018-07-04T01:20:55.740Z,14.24
2018-07-04T01:23:37.670Z,14.18
2018-07-04T01:26:17.943Z,14.17
2018-07-04T01:28:58.182Z,14.14
2018-07-04T01:31:38.342Z,14.08
2018-07-04T01:34:18.622Z,14.04
2018-07-04T01:36:59.075Z,14.00
2018-07-04T01:39:39.358Z,13.95
2018-07-04T01:42:19.610Z,13.89
2018-07-04T01:44:59.763Z,13.84
2018-07-04T01:47:40.038Z,13.80
2018-07-04T01:50:20.359Z,13.78
2018-07-04T01:53:00.752Z,13.74
2018-07-04T01:55:41.031Z,13.70
2018-07-04T01:58:21.450Z,13.66
2018-07-04T02:01:01.888Z,13.58
2018-07-04T02:03:42.227Z,13.54
2018-07-04T02:06:22.564Z,13.52
2018-07-04T02:09:02.964Z,13.52
2018-07-04T02:11:43.328Z,13.48
2018-07-04T02:14:23.825Z,13.47
2018-07-04T02:17:05.109Z,13.40
2018-07-04T02:19:45.304Z,13.36
2018-07-04T02:22:25.559Z,13.27
2018-07-04T02:25:06.103Z,13.27
2018-07-04T02:27:46.389Z,13.25
2018-07-04T02:30:26.581Z,13.23
2018-07-04T02:33:07.021Z,13.20
2018-07-04T02:35:47.269Z,13.18
2018-07-04T02:38:27.638Z,13.17
2018-07-04T02:41:07.937Z,13.14
2018-07-04T02:43:48.399Z,13.12
2018-07-04T02:46:34.118Z,13.14
2018-07-04T02:49:14.326Z,13.17
2018-07-04T02:51:54.618Z,13.20
2018-07-04T02:54:34.712Z,13.23
2018-07-04T02:57:14.925Z,13.22
2018-07-04T02:59:55.277Z,13.25
2018-07-04T03:02:35.694Z,13.29
2018-07-04T03:05:15.910Z,13.32
2018-07-04T03:07:56.228Z,13.35
2018-07-04T03:10:36.686Z,13.40
2018-07-04T03:13:16.874Z,13.41
2018-07-04T03:15:57.245Z,13.46
2018-07-04T03:18:37.608Z,13.46
2018-07-04T03:21:17.954Z,13.47
2018-07-04T03:23:58.429Z,13.48
2018-07-04T03:26:38.779Z,13.55
2018-07-04T03:29:19.104Z,13.58
2018-07-04T03:31:59.347Z,13.63
2018-07-04T03:34:39.545Z,13.66
2018-07-04T03:37:19.935Z,13.68
2018-07-04T03:40:00.863Z,13.69
2018-07-04T03:42:41.082Z,13.72
2018-07-04T03:45:21.439Z,13.68
2018-07-04T03:48:01.715Z,13.68
2018-07-04T03:50:41.909Z,13.72
2018-07-04T03:53:22.288Z,13.77
2018-07-04T03:56:02.506Z,13.83
2018-07-04T03:58:42.803Z,13.86
2018-07-04T04:01:23.230Z,13.91
2018-07-04T04:04:04.350Z,13.93
2018-07-04T04:06:44.589Z,14.00
2018-07-04T04:09:25.099Z,14.06
2018-07-04T04:12:05.388Z,14.13
2018-07-04T04:14:45.736Z,14.17
2018-07-04T04:17:26.106Z,14.22
2018-07-04T04:20:06.450Z,14.28
2018-07-04T04:22:46.881Z,14.34
2018-07-04T04:25:27.134Z,14.40
2018-07-04T04:28:07.490Z,14.44
2018-07-04T04:30:47.684Z,14.51
2018-07-04T04:33:28.104Z,14.57
2018-07-04T04:36:08.297Z,14.67
2018-07-04T04:38:48.673Z,14.74
2018-07-04T04:41:29.005Z,14.81
2018-07-04T04:44:09.351Z,14.86
2018-07-04T04:46:50.000Z,14.79
2018-07-04T04:49:30.268Z,14.84
2018-07-04T04:52:10.536Z,14.92
2018-07-04T04:54:50.895Z,15.04
2018-07-04T04:57:31.097Z,15.22
2018-07-04T05:00:11.364Z,15.42
2018-07-04T05:02:51.674Z,15.64
2018-07-04T05:05:31.936Z,15.79
2018-07-04T05:08:12.193Z,15.93
2018-07-04T05:10:52.701Z,16.04
2018-07-04T05:13:32.869Z,16.17
2018-07-04T05:16:13.228Z,16.31
2018-07-04T05:18:53.541Z,16.43
2018-07-04T05:21:33.842Z,16.52
2018-07-04T05:24:14.298Z,16.60
2018-07-04T05:26:54.526Z,16.67
2018-07-04T05:29:35.380Z,16.74
2018-07-04T05:32:15.754Z,16.74
2018-07-04T05:34:56.020Z,16.80
2018-07-04T05:37:36.384Z,16.83
2018-07-04T05:40:17.664Z,16.82
2018-07-04T05:42:58.010Z,16.84
2018-07-04T05:45:38.353Z,16.94
2018-07-04T05:48:18.863Z,17.06
2018-07-04T05:50:59.330Z,17.23
2018-07-04T05:53:39.551Z,17.40
2018-07-04T05:56:20.077Z,17.56
2018-07-04T05:59:00.377Z,17.68
2018-07-04T06:01:40.611Z,17.87
2018-07-04T06:04:21.041Z,18.03
2018-07-04T06:07:01.376Z,18.19
2018-07-04T06:09:41.845Z,18.38
2018-07-04T06:12:23.983Z,18.57
2018-07-04T06:15:04.313Z,18.79
2018-07-04T06:17:44.610Z,19.01
2018-07-04T06:20:24.953Z,19.24
2018-07-04T06:23:07.129Z,19.42
2018-07-04T06:25:47.421Z,19.56
2018-07-04T06:28:27.775Z,19.71
2018-07-04T06:31:08.205Z,19.80
2018-07-04T06:33:48.546Z,19.85
2018-07-04T06:36:29.072Z,19.99
2018-07-04T06:38:56.972Z,20.10
2018-07-04T06:41:24.913Z,20.14
2018-07-04T06:43:52.843Z,20.23
2018-07-04T06:46:20.797Z,20.33
2018-07-04T06:48:48.716Z,20.49
2018-07-04T06:51:16.658Z,20.54
2018-07-04T06:53:44.590Z,20.59
2018-07-04T06:56:12.506Z,20.59
2018-07-04T06:58:40.473Z,20.74
2018-07-04T07:01:08.386Z,20.83
2018-07-04T07:03:48.685Z,20.89
2018-07-04T07:06:28.994Z,21.02
2018-07-04T07:09:09.168Z,21.22
2018-07-04T07:11:49.520Z,21.48
2018-07-04T07:14:29.769Z,21.74
2018-07-04T07:17:10.045Z,22.04
2018-07-04T07:19:50.253Z,22.28
2018-07-04T07:22:30.572Z,22.34
2018-07-04T07:25:10.934Z,22.37
2018-07-04T07:27:51.833Z,22.40
2018-07-04T07:30:32.150Z,22.43
2018-07-04T07:33:12.526Z,22.46
2018-07-04T07:35:52.852Z,22.77
2018-07-04T07:38:33.134Z,22.96
2018-07-04T07:41:13.425Z,23.13
2018-07-04T07:43:53.767Z,23.10
2018-07-04T07:46:34.153Z,23.20
2018-07-04T07:49:14.398Z,23.27
2018-07-04T07:51:54.773Z,23.62
2018-07-04T07:54:35.181Z,23.74
2018-07-04T07:57:15.557Z,23.96
2018-07-04T07:59:55.777Z,24.07
2018-07-04T08:02:36.089Z,24.10
2018-07-04T08:05:16.405Z,24.06
2018-07-04T08:07:56.913Z,24.00
2018-07-04T08:10:37.221Z,24.03
2018-07-04T08:13:17.609Z,23.95
2018-07-04T08:15:58.095Z,24.14
2018-07-04T08:18:38.369Z,24.21
2018-07-04T08:21:18.669Z,24.48
2018-07-04T08:23:59.103Z,24.74
2018-07-04T08:26:39.353Z,24.83
2018-07-04T08:29:19.657Z,25.00
2018-07-04T08:31:59.819Z,25.08
2018-07-04T08:34:41.650Z,25.15
2018-07-04T08:37:22.108Z,25.27
2018-07-04T08:40:02.478Z,25.41
2018-07-04T08:42:42.785Z,25.42
2018-07-04T08:45:23.112Z,25.66
2018-07-04T08:48:03.460Z,25.74
2018-07-04T08:50:43.985Z,25.94
2018-07-04T08:53:24.446Z,26.24
2018-07-04T08:56:05.173Z,26.47
2018-07-04T08:58:45.320Z,26.78
2018-07-04T09:01:25.888Z,26.87
2018-07-04T09:04:06.372Z,26.93
2018-07-04T09:06:46.577Z,27.08
2018-07-04T09:09:26.809Z,27.07
2018-07-04T09:12:07.305Z,26.96
2018-07-04T09:14:48.785Z,26.98
2018-07-04T09:17:29.051Z,27.01
2018-07-04T09:20:09.369Z,27.26
2018-07-04T09:22:49.841Z,27.41
2018-07-04T09:25:30.785Z,27.51
2018-07-04T09:28:11.144Z,27.78
2018-07-04T09:30:51.510Z,27.80
2018-07-04T09:33:31.724Z,27.80
2018-07-04T09:36:11.878Z,27.73
2018-07-04T09:38:52.281Z,28.04
2018-07-04T09:41:32.753Z,28.14
2018-07-04T09:44:13.095Z,28.29
2018-07-04T09:46:53.416Z,28.60
2018-07-04T09:49:34.024Z,28.68
2018-07-04T09:52:14.252Z,28.82
2018-07-04T09:54:54.745Z,28.73
2018-07-04T09:57:35.802Z,28.73
2018-07-04T10:00:19.865Z,28.47
2018-07-04T10:03:00.284Z,28.16
2018-07-04T10:05:40.736Z,27.96
2018-07-04T10:08:20.993Z,27.89
2018-07-04T10:11:01.446Z,28.27
2018-07-04T10:13:41.726Z,28.52
2018-07-04T10:16:21.953Z,28.92
2018-07-04T10:19:02.431Z,29.32
2018-07-04T10:21:42.817Z,29.51
2018-07-04T10:24:23.313Z,29.37
2018-07-04T10:27:03.537Z,29.41
2018-07-04T10:29:43.754Z,29.60
2018-07-04T10:32:24.137Z,29.57
2018-07-04T10:35:04.504Z,29.38
2018-07-04T10:37:45.156Z,29.69
2018-07-04T10:40:25.466Z,29.73
2018-07-04T10:43:05.873Z,29.85
2018-07-04T10:45:46.192Z,30.22
2018-07-04T10:48:26.916Z,29.74
2018-07-04T10:51:07.361Z,29.29
2018-07-04T10:53:47.804Z,29.29
2018-07-04T10:56:28.088Z,29.55
2018-07-04T10:59:08.372Z,29.48
2018-07-04T11:01:51.266Z,29.37
2018-07-04T11:04:31.591Z,29.14
2018-07-04T11:07:12.109Z,29.17
2018-07-04T11:09:52.351Z,29.27
2018-07-04T11:12:32.855Z,29.53
2018-07-04T11:15:13.259Z,29.41
2018-07-04T11:17:53.521Z,29.20
2018-07-04T11:20:34.149Z,29.40
2018-07-04T11:23:14.529Z,29.45
2018-07-04T11:25:54.989Z,29.70
2018-07-04T11:28:35.353Z,29.72
2018-07-04T11:31:15.655Z,29.73
2018-07-04T11:33:56.004Z,29.61
2018-07-04T11:36:36.245Z,29.68
2018-07-04T11:39:16.781Z,29.84
2018-07-04T11:41:57.257Z,29.93
2018-07-04T11:44:40.024Z,30.38
2018-07-04T11:47:08.072Z,30.32
2018-07-04T11:49:36.044Z,30.38
2018-07-04T11:52:03.942Z,30.67
2018-07-04T11:54:31.922Z,30.99
2018-07-04T11:56:59.922Z,31.04
2018-07-04T11:59:27.785Z,31.10
2018-07-04T12:01:55.737Z,31.03
2018-07-04T12:04:36.019Z,31.13
2018-07-04T12:07:06.851Z,31.27
2018-07-04T12:09:39.282Z,30.94
2018-07-04T12:12:07.378Z,30.99
2018-07-04T12:14:35.287Z,31.18
2018-07-04T12:17:03.213Z,31.09
2018-07-04T12:19:31.165Z,31.00
2018-07-04T12:21:59.060Z,30.49
2018-07-04T12:24:27.030Z,30.28
2018-07-04T12:26:54.986Z,29.99
2018-07-04T12:29:22.902Z,29.84
2018-07-04T12:31:50.870Z,29.79
2018-07-04T12:34:18.832Z,29.74
2018-07-04T12:36:46.730Z,29.76
2018-07-04T12:39:14.829Z,29.74
2018-07-04T12:41:43.049Z,29.62
2018-07-04T12:44:10.997Z,29.47
2018-07-04T12:46:38.998Z,29.45
2018-07-04T12:49:06.967Z,29.38
2018-07-04T12:51:35.820Z,29.30
2018-07-04T12:54:09.149Z,29.28
2018-07-04T12:56:49.534Z,29.36
2018-07-04T12:59:29.726Z,29.24
2018-07-04T13:02:09.913Z,29.31
2018-07-04T13:04:50.245Z,29.44
2018-07-04T13:07:30.437Z,29.50
2018-07-04T13:10:10.772Z,29.45
2018-07-04T13:12:50.959Z,29.43
2018-07-04T13:15:31.281Z,29.51
2018-07-04T13:18:11.585Z,29.68
2018-07-04T13:20:51.921Z,29.66
2018-07-04T13:23:32.499Z,29.66
2018-07-04T13:26:13.039Z,29.81
2018-07-04T13:28:53.454Z,29.85
2018-07-04T13:31:33.816Z,29.86
2018-07-04T13:34:14.158Z,29.84
2018-07-04T13:36:54.350Z,29.91
2018-07-04T13:39:34.592Z,29.89
2018-07-04T13:42:14.784Z,29.92
2018-07-04T13:44:55.182Z,29.88
2018-07-04T13:47:35.466Z,29.84
2018-07-04T13:50:17.245Z,29.78
2018-07-04T13:52:57.751Z,29.48
2018-07-04T13:55:37.975Z,29.84
2018-07-04T13:58:18.402Z,29.73
2018-07-04T14:00:58.696Z,29.79
2018-07-04T14:03:39.049Z,29.89
2018-07-04T14:06:19.330Z,30.03
2018-07-04T14:08:59.783Z,29.98
2018-07-04T14:11:40.058Z,29.85
2018-07-04T14:14:20.537Z,29.71
2018-07-04T14:17:00.977Z,29.77
2018-07-04T14:19:41.463Z,29.77
2018-07-04T14:22:21.802Z,29.74
2018-07-04T14:25:02.077Z,29.95
2018-07-04T14:27:42.478Z,30.28
2018-07-04T14:30:22.693Z,30.44
2018-07-04T14:33:03.061Z,30.68
2018-07-04T14:35:43.621Z,30.78
2018-07-04T14:38:24.027Z,30.90
2018-07-04T14:41:04.373Z,30.92
2018-07-04T14:43:44.687Z,30.91
2018-07-04T14:46:25.142Z,31.20
2018-07-04T14:49:05.337Z,31.50
2018-07-04T14:51:45.675Z,31.17
2018-07-04T14:54:29.656Z,31.28
2018-07-04T14:57:10.126Z,31.34
2018-07-04T14:59:50.366Z,31.13
2018-07-04T15:02:30.969Z,30.99
2018-07-04T15:05:11.299Z,30.73
2018-07-04T15:07:51.819Z,30.74
2018-07-04T15:10:32.069Z,30.68
2018-07-04T15:13:12.390Z,30.60
2018-07-04T15:15:52.684Z,30.44
2018-07-04T15:18:32.749Z,30.31
2018-07-04T15:21:13.091Z,30.33
2018-07-04T15:23:53.829Z,30.36
2018-07-04T15:26:34.161Z,30.42
2018-07-04T15:29:14.461Z,30.50
2018-07-04T15:31:54.748Z,30.68
2018-07-04T15:34:35.413Z,30.88
2018-07-04T15:37:15.671Z,30.95
2018-07-04T15:39:56.161Z,30.68
2018-07-04T15:42:36.574Z,30.78
2018-07-04T15:45:16.903Z,30.86
2018-07-04T15:47:57.241Z,30.86
2018-07-04T15:50:37.601Z,30.82
2018-07-04T15:53:17.997Z,30.56
2018-07-04T15:55:58.223Z,30.58
2018-07-04T15:58:38.433Z,30.60
2018-07-04T16:01:18.693Z,30.60
2018-07-04T16:03:59.073Z,30.59
2018-07-04T16:06:39.564Z,30.25
2018-07-04T16:09:19.842Z,30.43
2018-07-04T16:12:00.098Z,30.47
2018-07-04T16:14:40.550Z,30.49
2018-07-04T16:17:20.872Z,30.47
2018-07-04T16:20:01.099Z,30.46
2018-07-04T16:22:41.537Z,30.37
2018-07-04T16:25:21.952Z,30.33
2018-07-04T16:28:02.292Z,30.24
2018-07-04T16:30:42.549Z,30.20
2018-07-04T16:33:22.949Z,30.15
2018-07-04T16:36:03.337Z,30.06
2018-07-04T16:38:43.823Z,30.02
2018-07-04T16:41:24.189Z,29.85
2018-07-04T16:44:04.643Z,29.80
2018-07-04T16:46:44.839Z,29.88
2018-07-04T16:49:25.045Z,29.82
2018-07-04T16:52:05.305Z,29.75
2018-07-04T16:54:45.483Z,29.69
2018-07-04T16:57:25.684Z,29.65
2018-07-04T17:00:06.061Z,29.56
2018-07-04T17:02:46.609Z,29.54
2018-07-04T17:05:27.017Z,29.41
2018-07-04T17:08:07.371Z,29.33
2018-07-04T17:10:47.678Z,29.26
2018-07-04T17:13:28.073Z,29.19
2018-07-04T17:16:08.480Z,29.06
2018-07-04T17:18:48.777Z,28.97
2018-07-04T17:21:29.097Z,28.93
2018-07-04T17:24:09.537Z,28.86
2018-07-04T17:26:49.910Z,28.83
2018-07-04T17:29:30.270Z,28.76
2018-07-04T17:32:10.354Z,28.69
2018-07-04T17:34:50.536Z,28.61
2018-07-04T17:37:30.825Z,28.51
2018-07-04T17:40:10.967Z,28.38
2018-07-04T17:42:51.505Z,28.28
2018-07-04T17:45:31.841Z,28.13
2018-07-04T17:48:12.458Z,27.97
2018-07-04T17:50:52.609Z,27.83
2018-07-04T17:53:32.871Z,27.71
2018-07-04T17:56:12.948Z,27.54
2018-07-04T17:58:53.372Z,27.37
2018-07-04T18:01:33.585Z,27.15
2018-07-04T18:04:15.607Z,26.92
2018-07-04T18:06:55.823Z,26.74
2018-07-04T18:09:36.379Z,26.54
2018-07-04T18:12:16.832Z,26.34
2018-07-04T18:14:57.346Z,26.15
2018-07-04T18:17:37.721Z,25.99
2018-07-04T18:20:18.060Z,25.84
2018-07-04T18:22:58.529Z,25.65
2018-07-04T18:25:39.183Z,25.49
2018-07-04T18:28:19.683Z,25.23
2018-07-04T18:31:00.023Z,25.20
2018-07-04T18:33:40.373Z,25.06
2018-07-04T18:36:20.877Z,24.90
2018-07-04T18:39:01.351Z,24.76
2018-07-04T18:41:41.729Z,24.64
2018-07-04T18:44:22.053Z,24.51
2018-07-04T18:47:02.442Z,24.36
2018-07-04T18:49:42.610Z,24.20
2018-07-04T18:52:22.751Z,24.08
2018-07-04T18:55:03.037Z,23.98
2018-07-04T18:57:43.419Z,23.86
2018-07-04T19:00:23.867Z,23.79
2018-07-04T19:03:04.300Z,23.70
2018-07-04T19:05:44.685Z,23.59
2018-07-04T19:08:25.093Z,23.49
2018-07-04T19:11:05.387Z,23.42
2018-07-04T19:13:45.844Z,23.34
2018-07-04T19:16:26.107Z,23.26
2018-07-04T19:19:06.564Z,23.17
2018-07-04T19:21:46.874Z,23.08
2018-07-04T19:24:27.227Z,23.00
2018-07-04T19:27:07.586Z,22.93
2018-07-04T19:29:47.900Z,22.88
2018-07-04T19:32:28.176Z,22.81
2018-07-04T19:35:08.544Z,22.75
2018-07-04T19:37:48.850Z,22.67
2018-07-04T19:40:29.338Z,22.61
2018-07-04T19:43:09.623Z,22.56
2018-07-04T19:45:50.190Z,22.47
2018-07-04T19:48:30.569Z,22.39
2018-07-04T19:51:10.825Z,22.34
2018-07-04T19:53:51.080Z,22.28
2018-07-04T19:56:31.506Z,22.23
2018-07-04T19:59:11.983Z,22.14
2018-07-04T20:01:52.224Z,22.06
2018-07-04T20:04:32.600Z,21.99
2018-07-04T20:07:12.965Z,21.93
2018-07-04T20:09:53.437Z,21.87
2018-07-04T20:12:33.717Z,21.82
2018-07-04T20:15:14.029Z,21.77
2018-07-04T20:17:55.229Z,21.69
2018-07-04T20:20:35.695Z,21.64
2018-07-04T20:23:16.201Z,21.60
2018-07-04T20:25:56.503Z,21.57
2018-07-04T20:28:36.877Z,21.52
2018-07-04T20:31:17.155Z,21.46
2018-07-04T20:33:57.531Z,21.39
2018-07-04T20:36:37.615Z,21.30
2018-07-04T20:39:17.947Z,21.23
2018-07-04T20:41:58.369Z,21.14
2018-07-04T20:44:39.006Z,21.09
2018-07-04T20:47:19.470Z,21.03
2018-07-04T20:49:59.635Z,21.00
2018-07-04T20:52:40.206Z,20.97
2018-07-04T20:55:20.450Z,20.93
2018-07-04T20:58:00.650Z,20.88
2018-07-04T21:00:41.025Z,20.85
2018-07-04T21:03:22.046Z,20.78
2018-07-04T21:06:02.513Z,20.75
2018-07-04T21:08:42.790Z,20.72
2018-07-04T21:11:23.015Z,20.67
2018-07-04T21:14:03.517Z,20.63
2018-07-04T21:16:45.112Z,20.62
2018-07-04T21:19:25.560Z,20.62
2018-07-04T21:22:05.735Z,20.64
2018-07-04T21:24:46.027Z,20.65
2018-07-04T21:27:26.401Z,20.63
2018-07-04T21:30:06.779Z,20.60
2018-07-04T21:32:47.012Z,20.57
2018-07-04T21:35:27.261Z,20.53
2018-07-04T21:38:07.629Z,20.43
2018-07-04T21:40:47.843Z,20.36
2018-07-04T21:43:28.112Z,20.32
2018-07-04T21:46:08.488Z,20.27
2018-07-04T21:48:49.825Z,20.25
2018-07-04T21:51:30.189Z,20.21
2018-07-04T21:54:10.496Z,20.19
2018-07-04T21:56:51.106Z,20.19
2018-07-04T21:59:31.802Z,20.17
2018-07-04T22:02:12.176Z,20.16
2018-07-04T22:04:56.498Z,20.16
2018-07-04T22:07:36.809Z,20.14
2018-07-04T22:10:17.266Z,20.12
2018-07-04T22:12:57.481Z,20.11
2018-07-04T22:15:37.739Z,20.10
2018-07-04T22:18:18.177Z,20.09
2018-07-04T22:20:58.259Z,20.07
2018-07-04T22:23:38.732Z,20.04
2018-07-04T22:26:18.945Z,20.00
2018-07-04T22:28:59.385Z,19.99
2018-07-04T22:31:39.718Z,20.00
2018-07-04T22:34:20.017Z,19.98
2018-07-04T22:37:00.565Z,19.98
2018-07-04T22:39:45.189Z,19.97
2018-07-04T22:42:25.493Z,19.96
2018-07-04T22:45:06.592Z,19.95
2018-07-04T22:47:47.048Z,19.96
2018-07-04T22:50:27.950Z,19.98
2018-07-04T22:53:08.391Z,19.98
2018-07-04T22:55:48.510Z,19.96
2018-07-04T22:58:28.824Z,19.96
2018-07-04T23:01:09.074Z,19.95
2018-07-04T23:03:49.528Z,19.93
2018-07-04T23:06:29.969Z,19.91
2018-07-04T23:09:10.388Z,19.88
2018-07-04T23:11:50.721Z,19.85
2018-07-04T23:14:31.155Z,19.80
2018-07-04T23:17:11.528Z,19.75
2018-07-04T23:19:52.005Z,19.72
2018-07-04T23:22:32.501Z,19.69
2018-07-04T23:25:12.977Z,19.66
2018-07-04T23:27:53.279Z,19.63
2018-07-04T23:30:33.537Z,19.60
2018-07-04T23:33:13.797Z,19.55
2018-07-04T23:35:54.134Z,19.50
2018-07-04T23:38:34.477Z,19.47
2018-07-04T23:41:14.728Z,19.43
2018-07-04T23:43:54.957Z,19.40
2018-07-04T23:46:35.349Z,19.35
2018-07-04T23:49:15.623Z,19.30
2018-07-04T23:51:56.030Z,19.25
2018-07-04T23:54:36.427Z,19.21
2018-07-04T23:57:16.733Z,19.17
2018-07-04T23:59:56.905Z,19.13
